createdAt,value
2022-12-31T00:01:11.033Z,7
2022-12-31T00:02:28.103Z,7
2022-12-31T00:03:45.022Z,7
2022-12-31T00:05:02.017Z,7
2022-12-31T00:06:18.995Z,7.1
2022-12-31T00:08:51.967Z,7.3
2022-12-31T00:10:09.112Z,7.3
2022-12-31T00:11:25.980Z,7.2
2022-12-31T00:12:42.994Z,7.2
2022-12-31T00:14:03.071Z,7.1
2022-12-31T00:15:20.011Z,7.2
2022-12-31T00:16:37.112Z,7.2
2022-12-31T00:17:53.999Z,7.3
2022-12-31T00:19:11.182Z,7.4
2022-12-31T00:20:28.003Z,7.5
2022-12-31T00:21:44.997Z,7.5
2022-12-31T00:23:01.989Z,7.6
2022-12-31T00:24:19.066Z,7.6
2022-12-31T00:25:36.030Z,7.6
2022-12-31T00:26:53.012Z,7.7
2022-12-31T00:28:10.002Z,7.7
2022-12-31T00:29:27.052Z,7.8
2022-12-31T00:30:44.079Z,8
2022-12-31T00:32:01.144Z,8.1
2022-12-31T00:33:18.041Z,8.2
2022-12-31T00:34:35.146Z,8.2
2022-12-31T00:35:52.056Z,8.4
2022-12-31T00:37:09.014Z,8.3
2022-12-31T00:38:26.036Z,8.3
2022-12-31T00:39:43.039Z,8.3
2022-12-31T00:41:00.111Z,8.3
2022-12-31T00:42:17.031Z,8.2
2022-12-31T00:43:34.034Z,8.2
2022-12-31T00:44:51.423Z,8.4
2022-12-31T00:46:09.066Z,8.4
2022-12-31T00:47:26.030Z,8.6
2022-12-31T00:48:43.025Z,8.6
2022-12-31T00:50:00.125Z,8.7
2022-12-31T00:51:17.050Z,8.8
2022-12-31T00:52:34.023Z,8.9
2022-12-31T00:53:51.074Z,9
2022-12-31T00:55:08.052Z,9.2
2022-12-31T00:56:25.065Z,9.3
2022-12-31T00:57:42.031Z,9.4
2022-12-31T00:58:59.115Z,9.5
2022-12-31T01:00:16.130Z,9.7
2022-12-31T01:01:33.124Z,9.8
2022-12-31T01:02:50.140Z,9.8
2022-12-31T01:04:07.050Z,9.8
2022-12-31T01:05:24.056Z,9.7
2022-12-31T01:06:41.083Z,9.6
2022-12-31T01:07:58.103Z,9.5
2022-12-31T01:09:15.051Z,9.4
2022-12-31T01:10:32.127Z,9.5
2022-12-31T01:11:49.056Z,9.6
2022-12-31T01:13:06.085Z,9.5
2022-12-31T01:14:23.072Z,9.4
2022-12-31T01:15:40.325Z,9.3
2022-12-31T01:16:57.085Z,9.3
2022-12-31T01:18:14.086Z,9.4
2022-12-31T01:19:31.056Z,9.5
2022-12-31T01:20:48.064Z,9.6
2022-12-31T01:22:05.090Z,9.7
2022-12-31T01:23:22.072Z,9.8
2022-12-31T01:24:39.080Z,9.8
2022-12-31T01:25:56.081Z,9.8
2022-12-31T01:27:13.102Z,9.9
2022-12-31T01:28:30.087Z,9.9
2022-12-31T01:29:47.088Z,9.9
2022-12-31T01:31:04.179Z,9.9
2022-12-31T01:32:21.112Z,9.8
2022-12-31T01:33:38.085Z,9.8
2022-12-31T01:34:55.095Z,9.8
2022-12-31T01:36:12.094Z,9.8
2022-12-31T01:37:29.158Z,9.8
2022-12-31T01:38:46.092Z,9.8
2022-12-31T01:40:03.193Z,9.8
2022-12-31T01:41:20.149Z,9.8
2022-12-31T01:42:37.146Z,9.9
2022-12-31T01:43:54.136Z,9.9
2022-12-31T01:45:11.201Z,9.8
2022-12-31T01:46:28.410Z,9.8
2022-12-31T01:47:45.335Z,9.9
2022-12-31T01:49:02.327Z,10
2022-12-31T01:50:19.233Z,10
2022-12-31T01:51:36.118Z,10.2
2022-12-31T01:52:53.129Z,10.3
2022-12-31T01:54:10.138Z,10.4
2022-12-31T01:55:27.114Z,10.4
2022-12-31T01:56:44.130Z,10.4
2022-12-31T01:58:01.282Z,10.5
2022-12-31T01:59:18.112Z,10.6
2022-12-31T02:00:35.175Z,10.7
2022-12-31T02:01:52.242Z,10.8
2022-12-31T02:03:09.207Z,10.9
2022-12-31T02:04:26.132Z,10.9
2022-12-31T02:05:43.136Z,11
2022-12-31T02:07:00.145Z,11
2022-12-31T02:08:17.192Z,11
2022-12-31T02:09:34.164Z,10.9
2022-12-31T02:10:51.135Z,10.9
2022-12-31T02:12:08.146Z,10.9
2022-12-31T02:13:25.395Z,10.9
2022-12-31T02:14:42.141Z,10.9
2022-12-31T02:15:59.173Z,11
2022-12-31T02:17:16.196Z,11.1
2022-12-31T02:18:33.266Z,11.2
2022-12-31T02:19:50.157Z,11.4
2022-12-31T02:21:07.147Z,11.5
2022-12-31T02:22:24.175Z,11.6
2022-12-31T02:23:41.291Z,11.7
2022-12-31T02:24:58.233Z,11.7
2022-12-31T02:26:15.255Z,11.8
2022-12-31T02:27:32.251Z,11.9
2022-12-31T02:28:49.315Z,11.9
2022-12-31T02:30:06.396Z,11.9
2022-12-31T02:31:23.293Z,11.9
2022-12-31T02:32:40.308Z,12
2022-12-31T02:33:57.324Z,12
2022-12-31T02:35:14.256Z,11.9
2022-12-31T02:36:31.258Z,11.9
2022-12-31T02:37:48.280Z,11.8
2022-12-31T02:39:05.359Z,11.9
2022-12-31T02:40:22.279Z,11.9
2022-12-31T02:41:39.272Z,11.9
2022-12-31T02:42:56.267Z,11.9
2022-12-31T02:44:13.298Z,11.9
2022-12-31T02:45:30.305Z,12
2022-12-31T02:46:47.305Z,12.1
2022-12-31T02:48:04.321Z,12.1
2022-12-31T02:49:21.313Z,12
2022-12-31T02:50:38.354Z,12.1
2022-12-31T02:51:55.291Z,12.2
2022-12-31T02:53:12.288Z,12.2
2022-12-31T02:54:29.344Z,12.4
2022-12-31T02:55:46.298Z,12.5
2022-12-31T02:57:03.294Z,12.5
2022-12-31T02:58:20.305Z,12.6
2022-12-31T02:59:37.318Z,12.7
2022-12-31T03:00:54.416Z,12.6
2022-12-31T03:02:11.404Z,12.5
2022-12-31T03:03:28.330Z,12.4
2022-12-31T03:04:45.309Z,12.2
2022-12-31T03:06:02.365Z,12.1
2022-12-31T03:07:19.319Z,12
2022-12-31T03:08:36.311Z,11.9
2022-12-31T03:09:53.310Z,11.8
2022-12-31T03:11:10.350Z,11.8
2022-12-31T03:12:27.319Z,11.8
2022-12-31T03:13:44.305Z,11.8
2022-12-31T03:15:01.337Z,12
2022-12-31T03:16:18.444Z,12
2022-12-31T03:17:35.316Z,12.1
2022-12-31T03:18:52.364Z,12.1
2022-12-31T03:20:09.452Z,12.1
2022-12-31T03:21:26.391Z,12.1
2022-12-31T03:22:43.327Z,12.1
2022-12-31T03:24:00.342Z,12.2
2022-12-31T03:25:17.364Z,12.2
2022-12-31T03:26:34.372Z,12.2
2022-12-31T03:27:51.393Z,12.3
2022-12-31T03:29:08.333Z,12.4
2022-12-31T03:30:25.437Z,12.4
2022-12-31T03:31:42.359Z,12.4
2022-12-31T03:32:59.379Z,12.3
2022-12-31T03:34:16.368Z,12.4
2022-12-31T03:35:33.350Z,12.4
2022-12-31T03:36:50.354Z,12.4
2022-12-31T03:38:07.409Z,12.4
2022-12-31T03:39:24.357Z,12.3
2022-12-31T03:40:41.401Z,12.2
2022-12-31T03:41:58.358Z,12.2
2022-12-31T03:43:15.450Z,12.2
2022-12-31T03:44:32.378Z,12.1
2022-12-31T03:45:49.386Z,12.1
2022-12-31T03:47:06.350Z,12
2022-12-31T03:48:23.423Z,12.1
2022-12-31T03:49:40.512Z,12.1
2022-12-31T03:50:57.388Z,12.1
2022-12-31T03:52:14.403Z,12.1
2022-12-31T03:53:31.368Z,12.1
2022-12-31T03:54:48.369Z,12.1
2022-12-31T03:56:05.404Z,12.1
2022-12-31T03:57:22.385Z,12.1
2022-12-31T03:58:39.409Z,12
2022-12-31T03:59:56.402Z,11.9
2022-12-31T04:01:13.575Z,11.8
2022-12-31T04:02:30.436Z,11.7
2022-12-31T04:03:47.398Z,11.6
2022-12-31T04:05:04.429Z,11.6
2022-12-31T04:06:21.447Z,11.5
2022-12-31T04:07:38.405Z,11.5
2022-12-31T04:08:55.455Z,11.5
2022-12-31T04:10:12.407Z,11.5
2022-12-31T04:11:29.398Z,11.4
2022-12-31T04:12:46.429Z,11.3
2022-12-31T04:14:03.427Z,11.3
2022-12-31T04:15:20.405Z,11.4
2022-12-31T04:16:37.428Z,11.5
2022-12-31T04:17:54.471Z,11.5
2022-12-31T04:19:11.436Z,11.5
2022-12-31T04:20:28.422Z,11.5
2022-12-31T04:21:45.409Z,11.5
2022-12-31T04:23:02.430Z,11.6
2022-12-31T04:24:19.403Z,11.6
2022-12-31T04:25:36.422Z,11.6
2022-12-31T04:26:53.421Z,11.5
2022-12-31T04:28:10.447Z,11.5
2022-12-31T04:29:27.415Z,11.4
2022-12-31T04:30:44.493Z,11.3
2022-12-31T04:32:01.524Z,11.2
2022-12-31T04:33:18.452Z,11.2
2022-12-31T04:34:35.420Z,11.1
2022-12-31T04:35:52.493Z,11.1
2022-12-31T04:37:09.436Z,11
2022-12-31T04:38:26.484Z,11.1
2022-12-31T04:39:43.426Z,11
2022-12-31T04:41:00.448Z,11.1
2022-12-31T04:42:17.463Z,11.1
2022-12-31T04:43:34.474Z,11.1
2022-12-31T04:44:51.072Z,11.2
2022-12-31T04:46:07.776Z,11.2
2022-12-31T04:47:25.347Z,11.2
2022-12-31T04:48:41.800Z,11.2
2022-12-31T04:49:59.493Z,11.2
2022-12-31T04:51:16.385Z,11.3
2022-12-31T04:52:37.129Z,11.3
2022-12-31T04:53:50.395Z,11.4
2022-12-31T04:55:07.375Z,11.5
2022-12-31T04:56:24.375Z,11.5
2022-12-31T04:57:41.357Z,11.6
2022-12-31T04:58:58.439Z,11.7
2022-12-31T05:00:15.411Z,11.7
2022-12-31T05:01:32.498Z,11.7
2022-12-31T05:02:49.547Z,11.7
2022-12-31T05:04:06.472Z,11.7
2022-12-31T05:05:23.381Z,11.8
2022-12-31T05:06:40.433Z,11.8
2022-12-31T05:07:57.379Z,11.7
2022-12-31T05:09:14.415Z,11.6
2022-12-31T05:10:31.502Z,11.5
2022-12-31T05:11:48.381Z,11.4
2022-12-31T05:13:05.452Z,11.5
2022-12-31T05:14:22.385Z,11.6
2022-12-31T05:15:39.418Z,11.6
2022-12-31T05:16:56.488Z,11.7
2022-12-31T05:18:13.429Z,11.7
2022-12-31T05:19:30.535Z,11.6
2022-12-31T05:20:47.444Z,11.6
2022-12-31T05:22:04.419Z,11.6
2022-12-31T05:23:21.414Z,11.6
2022-12-31T05:24:38.454Z,11.6
2022-12-31T05:25:55.442Z,11.7
2022-12-31T05:27:12.399Z,11.7
2022-12-31T05:28:29.439Z,11.7
2022-12-31T05:29:46.461Z,11.7
2022-12-31T05:31:03.462Z,11.8
2022-12-31T05:32:20.405Z,11.8
2022-12-31T05:33:37.403Z,11.8
2022-12-31T05:34:54.432Z,11.8
2022-12-31T05:36:11.433Z,11.9
2022-12-31T05:37:28.458Z,11.9
2022-12-31T05:38:45.485Z,11.9
2022-12-31T05:40:02.480Z,11.9
2022-12-31T05:41:19.430Z,12
2022-12-31T05:42:36.431Z,12
2022-12-31T05:43:53.469Z,12.2
2022-12-31T05:45:10.434Z,12.2
2022-12-31T05:46:27.445Z,12.3
2022-12-31T05:47:44.429Z,12.4
2022-12-31T05:49:01.468Z,12.4
2022-12-31T05:50:18.461Z,12.5
2022-12-31T05:51:35.433Z,12.6
2022-12-31T05:52:52.464Z,12.5
2022-12-31T05:54:09.466Z,12.6
2022-12-31T05:55:26.465Z,12.6
2022-12-31T05:56:43.441Z,12.6
2022-12-31T05:58:00.459Z,12.6
2022-12-31T05:59:17.507Z,12.6
2022-12-31T06:00:34.481Z,12.7
2022-12-31T06:01:51.457Z,12.8
2022-12-31T06:03:08.557Z,12.9
2022-12-31T06:04:25.529Z,13.1
2022-12-31T06:05:42.466Z,13.1
2022-12-31T06:06:59.458Z,13.1
2022-12-31T06:08:16.487Z,13.1
2022-12-31T06:09:33.493Z,13
2022-12-31T06:10:50.483Z,13
2022-12-31T06:12:07.468Z,12.9
2022-12-31T06:13:24.484Z,12.8
2022-12-31T06:14:45.517Z,12.7
2022-12-31T06:15:58.561Z,12.7
2022-12-31T06:17:15.483Z,12.6
2022-12-31T06:18:32.481Z,12.5
2022-12-31T06:19:49.541Z,12.5
2022-12-31T06:21:06.565Z,12.5
2022-12-31T06:22:23.471Z,12.5
2022-12-31T06:23:40.535Z,12.6
2022-12-31T06:24:58.164Z,12.7
2022-12-31T06:26:15.490Z,12.7
2022-12-31T06:27:32.480Z,12.8
2022-12-31T06:28:49.492Z,12.9
2022-12-31T06:30:06.675Z,13
2022-12-31T06:31:23.596Z,13.1
2022-12-31T06:32:40.518Z,13.2
2022-12-31T06:33:57.494Z,13.3
2022-12-31T06:35:14.568Z,13.3
2022-12-31T06:36:31.529Z,13.4
2022-12-31T06:37:48.533Z,13.3
2022-12-31T06:39:05.519Z,13.4
2022-12-31T06:40:22.588Z,13.4
2022-12-31T06:41:39.540Z,13.3
2022-12-31T06:43:00.015Z,13.4
2022-12-31T06:44:13.547Z,13.4
2022-12-31T06:45:30.555Z,13.3
2022-12-31T06:46:47.575Z,13.3
2022-12-31T06:48:04.707Z,13.2
2022-12-31T06:49:21.543Z,13.2
2022-12-31T06:50:38.522Z,13.1
2022-12-31T06:51:55.561Z,13.1
2022-12-31T06:53:12.527Z,13
2022-12-31T06:54:29.656Z,13
2022-12-31T06:55:46.533Z,13
2022-12-31T06:57:03.773Z,13
2022-12-31T06:58:20.545Z,13
2022-12-31T06:59:37.695Z,13
2022-12-31T07:00:54.564Z,13
2022-12-31T07:02:11.670Z,13
2022-12-31T07:03:28.586Z,13
2022-12-31T07:04:45.582Z,13
2022-12-31T07:06:02.578Z,13
2022-12-31T07:07:19.548Z,13
2022-12-31T07:08:36.551Z,13
2022-12-31T07:09:53.700Z,13.1
2022-12-31T07:11:10.546Z,13.1
2022-12-31T07:12:27.544Z,13
2022-12-31T07:13:44.545Z,12.9
2022-12-31T07:15:01.746Z,12.9
2022-12-31T07:16:18.577Z,13
2022-12-31T07:17:35.612Z,13
2022-12-31T07:18:52.568Z,13
2022-12-31T07:20:09.816Z,13
2022-12-31T07:21:26.579Z,13.1
2022-12-31T07:22:43.561Z,13.1
2022-12-31T07:24:00.567Z,13.2
2022-12-31T07:25:17.619Z,13.3
2022-12-31T07:26:34.598Z,13.5
2022-12-31T07:27:51.681Z,13.5
2022-12-31T07:29:08.621Z,13.5
2022-12-31T07:30:25.789Z,13.4
2022-12-31T07:31:42.664Z,13.5
2022-12-31T07:32:59.748Z,13.5
2022-12-31T07:34:16.737Z,13.5
2022-12-31T07:35:35.344Z,13.4
2022-12-31T07:36:50.779Z,13.5
2022-12-31T07:38:08.851Z,13.6
2022-12-31T07:39:26.674Z,13.6
2022-12-31T07:40:43.738Z,13.6
2022-12-31T07:42:00.700Z,13.5
2022-12-31T07:43:17.766Z,13.4
2022-12-31T07:44:35.675Z,13.5
2022-12-31T07:45:52.752Z,13.4
2022-12-31T07:47:10.798Z,13.5
2022-12-31T07:48:28.615Z,13.6
2022-12-31T07:49:45.616Z,13.7
2022-12-31T07:51:02.661Z,13.8
2022-12-31T07:52:23.283Z,13.8
2022-12-31T07:55:14.625Z,14
2022-12-31T07:56:31.768Z,14
2022-12-31T07:57:48.629Z,14.1
2022-12-31T07:59:05.633Z,14.1
2022-12-31T08:00:22.801Z,14
2022-12-31T08:01:39.764Z,14
2022-12-31T08:02:56.678Z,14
2022-12-31T08:04:13.672Z,14.2
2022-12-31T08:05:30.633Z,14.3
2022-12-31T08:06:47.699Z,14.5
2022-12-31T08:08:04.631Z,14.5
2022-12-31T08:09:21.684Z,14.5
2022-12-31T08:10:38.635Z,14.4
2022-12-31T08:11:55.672Z,14.4
2022-12-31T08:13:12.720Z,14.4
2022-12-31T08:14:29.641Z,14.5
2022-12-31T08:15:46.900Z,14.5
2022-12-31T08:17:03.737Z,14.4
2022-12-31T08:18:20.744Z,14.4
2022-12-31T08:19:37.658Z,14.4
2022-12-31T08:20:54.682Z,14.3
2022-12-31T08:22:11.700Z,14.4
2022-12-31T08:23:28.656Z,14.4
2022-12-31T08:24:45.758Z,14.5
2022-12-31T08:26:02.662Z,14.7
2022-12-31T08:27:19.691Z,14.9
2022-12-31T08:28:36.720Z,14.9
2022-12-31T08:29:53.678Z,15
2022-12-31T08:31:10.786Z,15.1
2022-12-31T08:32:27.719Z,15.2
2022-12-31T08:33:44.718Z,15.3
2022-12-31T08:35:01.726Z,15.3
2022-12-31T08:36:18.690Z,15.4
2022-12-31T08:37:35.706Z,15.5
2022-12-31T08:38:52.748Z,15.5
2022-12-31T08:40:09.751Z,15.5
2022-12-31T08:41:26.695Z,15.4
2022-12-31T08:42:43.718Z,15.5
2022-12-31T08:44:00.740Z,15.6
2022-12-31T08:45:18.135Z,15.6
2022-12-31T08:46:35.715Z,15.6
2022-12-31T08:47:58.079Z,15.5
2022-12-31T08:49:10.723Z,15.5
2022-12-31T08:50:27.727Z,15.4
2022-12-31T08:51:44.714Z,15.3
2022-12-31T08:53:01.869Z,15.3
2022-12-31T08:54:18.707Z,15.2
2022-12-31T08:55:35.702Z,15.1
2022-12-31T08:56:52.823Z,15.2
2022-12-31T08:58:09.760Z,15.2
2022-12-31T08:59:26.708Z,15.2
2022-12-31T09:00:43.795Z,15.3
2022-12-31T09:02:01.039Z,15.4
2022-12-31T09:03:17.720Z,15.5
2022-12-31T09:04:34.799Z,15.6
2022-12-31T09:05:51.724Z,15.7
2022-12-31T09:07:08.743Z,15.8
2022-12-31T09:08:25.828Z,16
2022-12-31T09:09:42.768Z,16.3
2022-12-31T09:10:59.735Z,16.5
2022-12-31T09:12:16.720Z,16.5
2022-12-31T09:13:33.770Z,16.6
2022-12-31T09:14:50.725Z,16.6
2022-12-31T09:16:07.760Z,16.5
2022-12-31T09:17:24.806Z,16.4
2022-12-31T09:18:41.764Z,16.4
2022-12-31T09:19:58.759Z,16.3
2022-12-31T09:21:15.795Z,16.2
2022-12-31T09:22:32.765Z,16.1
2022-12-31T09:23:49.819Z,16
2022-12-31T09:25:06.754Z,16
2022-12-31T09:26:23.760Z,16
2022-12-31T09:27:40.792Z,15.9
2022-12-31T09:28:57.810Z,16
2022-12-31T09:30:15.001Z,16
2022-12-31T09:31:31.833Z,16.1
2022-12-31T09:32:48.772Z,16.2
2022-12-31T09:34:05.778Z,16.5
2022-12-31T09:35:22.808Z,16.9
2022-12-31T09:36:39.847Z,17
2022-12-31T09:37:56.791Z,17.2
2022-12-31T09:39:13.755Z,17.3
2022-12-31T09:40:30.827Z,17.6
2022-12-31T09:41:47.765Z,17.6
2022-12-31T09:43:04.777Z,17.5
2022-12-31T09:44:21.800Z,17.3
2022-12-31T09:45:38.909Z,17.3
2022-12-31T09:46:55.788Z,17.3
2022-12-31T09:48:12.764Z,17.3
2022-12-31T09:49:29.775Z,17.2
2022-12-31T09:50:47.035Z,17.3
2022-12-31T09:52:03.874Z,17.3
2022-12-31T09:53:20.819Z,17.5
2022-12-31T09:54:37.784Z,17.7
2022-12-31T09:55:54.849Z,17.7
2022-12-31T09:57:11.834Z,17.6
2022-12-31T09:58:28.794Z,17.7
2022-12-31T09:59:45.842Z,17.9
2022-12-31T10:01:02.981Z,18.3
2022-12-31T10:02:19.989Z,18.6
2022-12-31T10:03:36.820Z,18.8
2022-12-31T10:04:53.829Z,18.8
2022-12-31T10:06:10.809Z,18.8
2022-12-31T10:07:27.912Z,18.8
2022-12-31T10:08:44.825Z,18.8
2022-12-31T10:10:01.986Z,18.8
2022-12-31T10:11:18.815Z,18.8
2022-12-31T10:12:35.853Z,18.6
2022-12-31T10:13:52.803Z,18.6
2022-12-31T10:15:09.852Z,18.5
2022-12-31T10:16:26.911Z,18.5
2022-12-31T10:17:43.855Z,18.5
2022-12-31T10:19:00.853Z,18.5
2022-12-31T10:20:17.902Z,18.4
2022-12-31T10:21:34.844Z,18.4
2022-12-31T10:22:51.830Z,18.4
2022-12-31T10:24:08.870Z,18.4
2022-12-31T10:25:37.749Z,18.6
2022-12-31T10:26:42.829Z,18.8
2022-12-31T10:27:59.839Z,18.9
2022-12-31T10:29:16.873Z,18.8
2022-12-31T10:30:33.914Z,18.7
2022-12-31T10:31:50.843Z,18.7
2022-12-31T10:33:07.895Z,18.8
2022-12-31T10:34:24.881Z,18.9
2022-12-31T10:35:41.866Z,19.1
2022-12-31T10:36:58.863Z,19.4
2022-12-31T10:38:15.844Z,19.5
2022-12-31T10:39:32.890Z,19.5
2022-12-31T10:40:49.846Z,19.6
2022-12-31T10:42:06.869Z,19.8
2022-12-31T10:43:23.878Z,20.1
2022-12-31T10:44:40.898Z,20.3
2022-12-31T10:45:57.978Z,20.5
2022-12-31T10:47:14.933Z,20.5
2022-12-31T10:48:31.865Z,20.4
2022-12-31T10:49:48.869Z,20.3
2022-12-31T10:51:05.878Z,20.3
2022-12-31T10:52:22.891Z,20.2
2022-12-31T10:53:39.870Z,20.2
2022-12-31T10:54:56.884Z,20.2
2022-12-31T10:56:13.964Z,20.2
2022-12-31T10:57:30.903Z,20.2
2022-12-31T10:58:47.892Z,20.2
2022-12-31T11:00:05.060Z,20.2
2022-12-31T11:01:22.130Z,20.2
2022-12-31T11:02:39.037Z,20.2
2022-12-31T11:03:55.902Z,20.2
2022-12-31T11:05:12.926Z,20.2
2022-12-31T11:06:29.983Z,20.1
2022-12-31T11:07:46.962Z,20.1
2022-12-31T11:09:03.903Z,20
2022-12-31T11:10:20.895Z,20
2022-12-31T11:11:37.909Z,20
2022-12-31T11:12:54.941Z,20.1
2022-12-31T11:14:11.957Z,20.3
2022-12-31T11:15:28.929Z,20.4
2022-12-31T11:16:45.969Z,20.6
2022-12-31T11:18:03.643Z,20.6
2022-12-31T11:19:20.928Z,20.7
2022-12-31T11:20:37.930Z,20.6
2022-12-31T11:21:54.914Z,20.6
2022-12-31T11:23:11.986Z,20.7
2022-12-31T11:24:28.938Z,21
2022-12-31T11:25:46.357Z,21.1
2022-12-31T11:27:03.957Z,21.2
2022-12-31T11:28:20.945Z,21.3
2022-12-31T11:29:37.949Z,21.2
2022-12-31T11:30:55.032Z,21.1
2022-12-31T11:32:12.006Z,21
2022-12-31T11:33:28.965Z,20.9
2022-12-31T11:34:45.949Z,20.8
2022-12-31T11:36:03.048Z,20.6
2022-12-31T11:37:19.940Z,20.6
2022-12-31T11:38:36.977Z,20.7
2022-12-31T11:39:53.956Z,20.9
2022-12-31T11:41:10.967Z,21.1
2022-12-31T11:42:28.047Z,21.4
2022-12-31T11:43:44.977Z,21.4
2022-12-31T11:45:02.157Z,21.2
2022-12-31T11:46:19.036Z,21.4
2022-12-31T11:47:44.706Z,21.6
2022-12-31T11:48:52.970Z,21.7
2022-12-31T11:50:10.014Z,21.6
2022-12-31T11:51:27.004Z,21.5
2022-12-31T11:52:44.030Z,21.5
2022-12-31T11:54:00.982Z,21.4
2022-12-31T11:55:17.983Z,21.4
2022-12-31T11:56:34.966Z,21.5
2022-12-31T11:57:52.120Z,21.7
2022-12-31T11:59:11.104Z,21.8
2022-12-31T12:00:26.181Z,21.7
2022-12-31T12:01:43.059Z,21.5
2022-12-31T12:03:00.157Z,21.5
2022-12-31T12:04:17.054Z,21.7
2022-12-31T12:05:34.025Z,21.8
2022-12-31T12:06:50.993Z,21.7
2022-12-31T12:08:08.074Z,21.7
2022-12-31T12:09:25.052Z,21.8
2022-12-31T12:10:42.003Z,21.8
2022-12-31T12:11:59.011Z,21.7
2022-12-31T12:13:16.044Z,21.8
2022-12-31T12:14:33.011Z,22
2022-12-31T12:15:50.164Z,22.1
2022-12-31T12:17:07.034Z,21.9
2022-12-31T12:18:24.056Z,21.7
2022-12-31T12:19:41.000Z,21.5
2022-12-31T12:20:58.057Z,21.5
2022-12-31T12:22:15.040Z,21.4
2022-12-31T12:23:32.045Z,21.6
2022-12-31T12:24:49.017Z,21.7
2022-12-31T12:26:06.046Z,21.8
2022-12-31T12:27:23.048Z,21.7
2022-12-31T12:28:44.067Z,21.6
2022-12-31T12:29:57.056Z,21.5
2022-12-31T12:31:14.127Z,21.5
2022-12-31T12:32:31.068Z,21.5
2022-12-31T12:33:48.050Z,21.4
2022-12-31T12:35:05.096Z,21.3
2022-12-31T12:36:22.085Z,21.1
2022-12-31T12:37:39.065Z,20.9
2022-12-31T12:38:56.073Z,20.9
2022-12-31T12:40:13.076Z,20.8
2022-12-31T12:41:30.077Z,20.9
2022-12-31T12:42:47.064Z,21
2022-12-31T12:44:04.096Z,20.9
2022-12-31T12:45:21.074Z,21
2022-12-31T12:46:38.104Z,21
2022-12-31T12:47:55.048Z,20.9
2022-12-31T12:49:12.132Z,20.9
2022-12-31T12:50:29.064Z,20.9
2022-12-31T12:51:46.098Z,20.8
2022-12-31T12:53:03.071Z,20.7
2022-12-31T12:54:20.091Z,20.7
2022-12-31T12:55:37.099Z,20.8
2022-12-31T12:56:54.142Z,20.7
2022-12-31T12:58:15.711Z,20.5
2022-12-31T12:59:28.088Z,20.3
2022-12-31T13:00:45.150Z,20.2
2022-12-31T13:02:02.406Z,20.2
2022-12-31T13:03:19.323Z,20.2
2022-12-31T13:04:36.213Z,20.2
2022-12-31T13:05:53.094Z,20.2
2022-12-31T13:07:10.235Z,20.2
2022-12-31T13:08:27.244Z,20.2
2022-12-31T13:09:44.092Z,20.2
2022-12-31T13:11:01.167Z,20.2
2022-12-31T13:12:18.126Z,20.1
2022-12-31T13:13:35.084Z,20.1
2022-12-31T13:14:52.100Z,20
2022-12-31T13:16:09.141Z,20
2022-12-31T13:17:26.177Z,20.1
2022-12-31T13:18:43.126Z,20
2022-12-31T13:20:00.160Z,20.1
2022-12-31T13:21:17.116Z,20
2022-12-31T13:22:34.136Z,20
2022-12-31T13:23:51.130Z,20
2022-12-31T13:25:08.106Z,20
2022-12-31T13:26:25.111Z,20
2022-12-31T13:27:42.132Z,20
2022-12-31T13:28:59.186Z,20
2022-12-31T13:30:16.180Z,19.9
2022-12-31T13:31:33.169Z,19.9
2022-12-31T13:32:50.139Z,19.9
2022-12-31T13:34:07.194Z,19.9
2022-12-31T13:35:24.176Z,19.9
2022-12-31T13:36:41.149Z,19.9
2022-12-31T13:38:03.332Z,19.9
2022-12-31T13:39:15.184Z,19.9
2022-12-31T13:40:32.302Z,19.8
2022-12-31T13:41:49.147Z,19.7
2022-12-31T13:43:06.163Z,19.6
2022-12-31T13:44:23.193Z,19.6
2022-12-31T13:45:40.171Z,19.6
2022-12-31T13:46:57.180Z,19.7
2022-12-31T13:48:14.218Z,19.6
2022-12-31T13:49:31.192Z,19.7
2022-12-31T13:50:48.201Z,19.8
2022-12-31T13:52:05.235Z,19.8
2022-12-31T13:53:22.156Z,19.9
2022-12-31T13:54:39.188Z,19.9
2022-12-31T13:55:56.986Z,19.9
2022-12-31T13:57:13.229Z,19.9
2022-12-31T13:58:30.246Z,19.8
2022-12-31T13:59:47.181Z,19.7
2022-12-31T14:01:04.294Z,19.8
2022-12-31T14:02:21.336Z,19.8
2022-12-31T14:03:38.186Z,19.8
2022-12-31T14:04:55.201Z,19.9
2022-12-31T14:06:12.459Z,20
2022-12-31T14:07:34.710Z,20
2022-12-31T14:08:46.208Z,20
2022-12-31T14:10:03.487Z,20
2022-12-31T14:11:20.223Z,20
2022-12-31T14:12:37.464Z,20
2022-12-31T14:13:54.209Z,20
2022-12-31T14:15:11.192Z,20
2022-12-31T14:16:28.325Z,20.1
2022-12-31T14:17:45.181Z,20.1
2022-12-31T14:19:02.343Z,20
2022-12-31T14:24:10.234Z,20
2022-12-31T14:25:27.230Z,19.9
2022-12-31T14:26:44.203Z,19.9
2022-12-31T14:28:01.227Z,19.9
2022-12-31T14:29:18.207Z,19.9
2022-12-31T14:30:35.399Z,19.9
2022-12-31T14:31:52.282Z,19.8
2022-12-31T14:33:09.246Z,19.8
2022-12-31T14:34:26.357Z,19.7
2022-12-31T14:35:43.262Z,19.7
2022-12-31T14:37:00.230Z,19.7
2022-12-31T14:38:17.240Z,19.7
2022-12-31T14:39:34.295Z,19.7
2022-12-31T14:40:51.299Z,19.7
2022-12-31T14:42:08.227Z,19.7
2022-12-31T14:43:25.227Z,19.8
2022-12-31T14:44:42.228Z,19.8
2022-12-31T14:45:59.331Z,19.8
2022-12-31T14:47:16.248Z,19.8
2022-12-31T14:48:33.318Z,19.8
2022-12-31T14:49:50.243Z,19.7
2022-12-31T14:51:07.294Z,19.8
2022-12-31T14:52:24.293Z,19.8
2022-12-31T14:53:41.243Z,19.8
2022-12-31T14:54:58.278Z,19.7
2022-12-31T14:56:15.249Z,19.7
2022-12-31T14:57:38.965Z,19.6
2022-12-31T14:58:49.310Z,19.7
2022-12-31T15:00:06.327Z,19.8
2022-12-31T15:01:23.418Z,19.9
2022-12-31T15:02:40.369Z,20
2022-12-31T15:03:57.307Z,20
2022-12-31T15:05:14.259Z,20
2022-12-31T15:06:31.350Z,19.9
2022-12-31T15:07:48.271Z,19.9
2022-12-31T15:09:08.075Z,19.8
2022-12-31T15:10:22.511Z,19.8
2022-12-31T15:11:39.276Z,19.8
2022-12-31T15:12:56.287Z,19.8
2022-12-31T15:14:13.325Z,19.9
2022-12-31T15:15:30.314Z,19.9
2022-12-31T15:16:47.334Z,19.9
2022-12-31T15:18:04.282Z,19.9
2022-12-31T15:19:21.305Z,19.9
2022-12-31T15:20:38.351Z,19.9
2022-12-31T15:21:55.278Z,19.9
2022-12-31T15:23:12.288Z,19.9
2022-12-31T15:24:29.351Z,19.8
2022-12-31T15:25:46.354Z,19.7
2022-12-31T15:27:03.296Z,19.7
2022-12-31T15:28:20.353Z,19.7
2022-12-31T15:29:37.304Z,19.8
2022-12-31T15:30:54.352Z,19.9
2022-12-31T15:32:11.303Z,19.9
2022-12-31T15:33:28.578Z,19.9
2022-12-31T15:34:45.431Z,19.9
2022-12-31T15:36:02.414Z,19.9
2022-12-31T15:37:19.451Z,19.9
2022-12-31T15:38:36.361Z,19.9
2022-12-31T15:39:53.594Z,20
2022-12-31T15:41:10.349Z,20
2022-12-31T15:42:37.596Z,20
2022-12-31T15:43:44.341Z,20
2022-12-31T15:45:01.335Z,20
2022-12-31T15:46:18.445Z,20
2022-12-31T15:47:35.381Z,20
2022-12-31T15:48:53.380Z,20
2022-12-31T15:50:09.398Z,20
2022-12-31T15:51:26.368Z,20
2022-12-31T15:52:43.391Z,20
2022-12-31T15:54:00.339Z,20
2022-12-31T15:55:17.371Z,20
2022-12-31T15:56:34.474Z,20
2022-12-31T15:57:51.432Z,20
2022-12-31T15:59:08.338Z,20.1
2022-12-31T16:00:25.432Z,20.1
2022-12-31T16:01:42.563Z,20.1
2022-12-31T16:02:59.514Z,20.1
2022-12-31T16:04:16.407Z,20.2
2022-12-31T16:05:33.391Z,20.2
2022-12-31T16:06:51.069Z,20.2
2022-12-31T16:08:07.395Z,20.2
2022-12-31T16:09:24.508Z,20.1
2022-12-31T16:10:41.400Z,20.1
2022-12-31T16:11:58.483Z,20.1
2022-12-31T16:13:15.364Z,20.1
2022-12-31T16:14:35.433Z,20.1
2022-12-31T16:15:52.389Z,20.1
2022-12-31T16:17:09.460Z,20.1
2022-12-31T16:18:26.377Z,20.2
2022-12-31T16:19:43.387Z,20.3
2022-12-31T16:21:00.402Z,20.3
2022-12-31T16:22:17.431Z,20.4
2022-12-31T16:23:38.854Z,20.4
2022-12-31T16:25:19.848Z,20.3
2022-12-31T16:26:08.382Z,20.2
2022-12-31T16:27:25.469Z,20.2
2022-12-31T16:28:42.448Z,20.2
2022-12-31T16:29:59.459Z,20.3
2022-12-31T16:31:16.443Z,20.3
2022-12-31T16:32:33.549Z,20.3
2022-12-31T16:33:50.407Z,20.4
2022-12-31T16:35:15.100Z,20.3
2022-12-31T16:36:24.408Z,20.2
2022-12-31T16:37:41.510Z,20.1
2022-12-31T16:38:58.436Z,20.1
2022-12-31T16:40:15.409Z,20.1
2022-12-31T16:41:32.441Z,20.1
2022-12-31T16:42:49.480Z,20.2
2022-12-31T16:44:06.411Z,20.2
2022-12-31T16:45:23.429Z,20.2
2022-12-31T16:46:40.443Z,20.2
2022-12-31T16:47:57.484Z,20.3
2022-12-31T16:49:14.415Z,20.2
2022-12-31T16:50:31.446Z,20.2
2022-12-31T16:51:48.447Z,20.2
2022-12-31T16:53:05.558Z,20.2
2022-12-31T16:54:22.435Z,20.2
2022-12-31T16:55:39.465Z,20.2
2022-12-31T16:56:56.446Z,20.2
2022-12-31T16:58:13.499Z,20.1
2022-12-31T16:59:35.081Z,20.1
2022-12-31T17:00:47.452Z,20.1
2022-12-31T17:02:04.695Z,20.2
2022-12-31T17:03:21.594Z,20.2
2022-12-31T17:04:43.190Z,20.2
2022-12-31T17:05:55.484Z,20.3
2022-12-31T17:07:12.506Z,20.3
2022-12-31T17:08:29.470Z,20.2
2022-12-31T17:09:46.487Z,20.2
2022-12-31T17:11:03.604Z,20.2
2022-12-31T17:12:20.458Z,20.2
2022-12-31T17:13:37.531Z,20.3
2022-12-31T17:14:54.465Z,20.3
2022-12-31T17:16:11.641Z,20.3
2022-12-31T17:17:28.469Z,20.4
2022-12-31T17:18:45.539Z,20.4
2022-12-31T17:20:02.721Z,20.4
2022-12-31T17:21:19.486Z,20.4
2022-12-31T17:22:37.105Z,20.4
2022-12-31T17:23:53.536Z,20.4
2022-12-31T17:25:10.508Z,20.4